Time;durP1;ratioP1;P1;durP2;ratioP2;P2;SDS_P1;SDS_P2;PMS_P1;PMS_P2;Temp;Humidity;BMP_temperature;BMP_pressure;BME280_temperature;BME280_humidity;BME280_pressure;Samples;Min_cycle;Max_cycle;Signal;HPM_P1;HPM_P2
2021/01/29 00:01:42;;;;;;;10.57;6.63;;;;;;;;;;4897897;29;20116;-24
2021/01/29 00:04:08;;;;;;;10.50;5.75;;;;;;;;;;4897766;29;20052;-25
2021/01/29 00:06:33;;;;;;;9.38;6.78;;;;;;;;;;4898096;29;20111;-24
2021/01/29 00:08:58;;;;;;;6.15;5.30;;;;;;;;;;4898893;29;20495;-24
2021/01/29 00:11:24;;;;;;;8.23;5.95;;;;;;;;;;4898108;29;20136;-24
2021/01/29 00:13:49;;;;;;;10.27;5.50;;;;;;;;;;4880956;29;20043;-24
2021/01/29 00:16:14;;;;;;;9.85;6.38;;;;;;;;;;4897635;29;20036;-24
2021/01/29 00:18:40;;;;;;;8.50;5.65;;;;;;;;;;4897608;29;20032;-24
2021/01/29 00:21:05;;;;;;;10.43;6.45;;;;;;;;;;4897524;29;20052;-24
2021/01/29 00:23:31;;;;;;;8.68;6.05;;;;;;;;;;4897464;29;20045;-24
2021/01/29 00:25:56;;;;;;;8.02;5.78;;;;;;;;;;4897486;29;20028;-24
2021/01/29 00:28:23;;;;;;;8.75;6.20;;;;;;;;;;4897192;29;20036;-24
2021/01/29 00:30:50;;;;;;;8.63;5.72;;;;;;;;;;4880330;29;20049;-24
2021/01/29 00:33:16;;;;;;;7.57;5.72;;;;;;;;;;4897760;29;20116;-25
2021/01/29 00:35:42;;;;;;;7.53;5.78;;;;;;;;;;4880664;29;20052;-25
2021/01/29 00:38:08;;;;;;;8.65;5.63;;;;;;;;;;4897223;29;20500;-26
2021/01/29 00:40:34;;;;;;;8.25;5.50;;;;;;;;;;4897390;29;20119;-26
2021/01/29 00:42:59;;;;;;;6.93;5.22;;;;;;;;;;4897152;29;20111;-26
2021/01/29 00:45:27;;;;;;;8.52;5.63;;;;;;;;;;4897259;29;20033;-23
2021/01/29 00:47:53;;;;;;;8.35;5.65;;;;;;;;;;4897354;29;20077;-24
2021/01/29 00:50:19;;;;;;;8.20;5.65;;;;;;;;;;4880402;29;20400;-24
2021/01/29 00:52:44;;;;;;;12.93;6.78;;;;;;;;;;4897169;29;20024;-23
2021/01/29 00:55:10;;;;;;;22.05;10.82;;;;;;;;;;4895980;29;20503;-23
2021/01/29 00:57:44;;;;;;;10.38;7.15;;;;;;;;;;4895913;29;20042;-24
2021/01/29 01:00:36;;;;;;;9.48;7.35;;;;;;;;;;4893380;29;20052;-23
2021/01/29 01:03:04;;;;;;;9.63;6.63;;;;;;;;;;4880140;29;20579;-23
2021/01/29 01:05:30;;;;;;;15.25;9.88;;;;;;;;;;4880166;29;20123;-23
2021/01/29 01:07:56;;;;;;;8.10;6.05;;;;;;;;;;4895739;29;20032;-23
2021/01/29 01:10:45;;;;;;;9.45;6.05;;;;;;;;;;4870075;29;20123;-23
2021/01/29 01:13:36;;;;;;;7.70;5.50;;;;;;;;;;4896816;29;20040;-23
2021/01/29 01:16:20;;;;;;;10.23;5.55;;;;;;;;;;4897125;29;20539;-23
2021/01/29 01:18:47;;;;;;;9.18;5.45;;;;;;;;;;4880105;29;20039;-24
2021/01/29 01:21:31;;;;;;;10.32;6.10;;;;;;;;;;4880175;29;20032;-23
2021/01/29 01:24:16;;;;;;;8.43;6.00;;;;;;;;;;4896677;29;20049;-24
2021/01/29 01:26:42;;;;;;;8.80;5.57;;;;;;;;;;4895654;29;20112;-23
2021/01/29 01:29:26;;;;;;;5.70;4.30;;;;;;;;;;4896990;29;20043;-24
2021/01/29 01:31:51;;;;;;;7.28;5.93;;;;;;;;;;4879900;29;20049;-23
2021/01/29 01:34:46;;;;;;;10.10;6.20;;;;;;;;;;4880200;29;20044;-23
2021/01/29 01:37:17;;;;;;;8.13;4.68;;;;;;;;;;4895569;29;20033;-24
2021/01/29 01:40:13;;;;;;;13.10;6.70;;;;;;;;;;4897980;29;20036;-23
2021/01/29 01:42:38;;;;;;;9.93;5.65;;;;;;;;;;4900491;29;20037;-23
2021/01/29 01:45:22;;;;;;;7.95;5.78;;;;;;;;;;4900733;29;20138;-23
2021/01/29 01:47:48;;;;;;;10.27;6.50;;;;;;;;;;4883458;29;20036;-24
2021/01/29 01:50:49;;;;;;;5.93;4.78;;;;;;;;;;4900188;29;20045;-25
2021/01/29 01:53:19;;;;;;;7.38;4.95;;;;;;;;;;4867848;29;20029;-25
2021/01/29 01:55:54;;;;;;;9.18;5.00;;;;;;;;;;4883219;29;20441;-25
2021/01/29 01:58:42;;;;;;;7.18;4.70;;;;;;;;;;4870665;29;20037;-25
2021/01/29 02:01:30;;;;;;;7.70;5.15;;;;;;;;;;4900180;29;20033;-26
2021/01/29 02:04:19;;;;;;;9.48;5.22;;;;;;;;;;4883076;29;20036;-25
2021/01/29 02:07:27;;;;;;;6.32;4.28;;;;;;;;;;4848619;29;20046;-24
2021/01/29 02:10:23;;;;;;;8.73;5.28;;;;;;;;;;4883304;29;20041;-25
2021/01/29 02:12:48;;;;;;;6.68;4.88;;;;;;;;;;4883006;29;20024;-25
2021/01/29 02:15:23;;;;;;;7.88;5.00;;;;;;;;;;4899830;29;20029;-24
2021/01/29 02:17:49;;;;;;;8.18;5.65;;;;;;;;;;4883244;29;20036;-25
2021/01/29 02:20:55;;;;;;;8.68;5.40;;;;;;;;;;4882927;29;20480;-25
2021/01/29 02:23:53;;;;;;;17.08;6.25;;;;;;;;;;4899497;29;20056;-24
2021/01/29 02:27:06;;;;;;;8.15;5.78;;;;;;;;;;4848372;29;20441;-24
2021/01/29 02:29:52;;;;;;;14.02;7.60;;;;;;;;;;4899577;29;20504;-25
2021/01/29 02:32:44;;;;;;;10.52;6.57;;;;;;;;;;4882083;29;20052;-24
2021/01/29 02:35:19;;;;;;;12.23;6.13;;;;;;;;;;4868408;29;20048;-25
2021/01/29 02:37:54;;;;;;;10.27;6.50;;;;;;;;;;4898175;29;20170;-24
2021/01/29 02:40:34;;;;;;;11.35;7.03;;;;;;;;;;4898219;29;20063;-25
2021/01/29 02:43:10;;;;;;;7.30;5.80;;;;;;;;;;4882346;29;20481;-25
2021/01/29 02:45:52;;;;;;;8.65;5.53;;;;;;;;;;4882427;29;20128;-25
2021/01/29 02:48:54;;;;;;;12.27;6.18;;;;;;;;;;4882417;29;20029;-25
2021/01/29 02:51:45;;;;;;;6.93;5.32;;;;;;;;;;4899016;29;20039;-25
2021/01/29 02:54:36;;;;;;;9.45;5.63;;;;;;;;;;4899429;29;20079;-24
2021/01/29 02:57:29;;;;;;;10.18;6.32;;;;;;;;;;4898705;29;20055;-24
2021/01/29 03:00:33;;;;;;;7.20;5.35;;;;;;;;;;4841072;29;20034;-25
2021/01/29 03:03:07;;;;;;;7.20;4.45;;;;;;;;;;4840737;29;20046;-25
2021/01/29 03:06:01;;;;;;;13.68;5.32;;;;;;;;;;4857485;29;20041;-24
2021/01/29 03:08:27;;;;;;;6.85;5.28;;;;;;;;;;4898937;29;20032;-24
2021/01/29 03:11:14;;;;;;;8.98;5.93;;;;;;;;;;4884623;29;20040;-24
2021/01/29 03:14:02;;;;;;;9.15;5.57;;;;;;;;;;4898745;29;20036;-25
2021/01/29 03:17:08;;;;;;;16.63;7.93;;;;;;;;;;4898881;29;20043;-24
2021/01/29 03:20:09;;;;;;;8.93;5.30;;;;;;;;;;4847358;29;20046;-24
2021/01/29 03:23:01;;;;;;;7.35;5.10;;;;;;;;;;4898630;29;20464;-24
2021/01/29 03:25:48;;;;;;;10.80;6.70;;;;;;;;;;4883591;29;20044;-25
2021/01/29 03:28:35;;;;;;;11.10;6.10;;;;;;;;;;4898496;29;20040;-25
2021/01/29 03:31:20;;;;;;;10.82;6.72;;;;;;;;;;4898585;29;20103;-24
2021/01/29 03:34:08;;;;;;;9.25;6.30;;;;;;;;;;4898248;29;20048;-25
2021/01/29 03:37:02;;;;;;;8.77;5.93;;;;;;;;;;4898266;29;20104;-24
2021/01/29 03:39:46;;;;;;;8.10;5.32;;;;;;;;;;4898394;29;20044;-24
2021/01/29 03:42:33;;;;;;;8.43;5.45;;;;;;;;;;4898468;29;20047;-24
2021/01/29 03:45:24;;;;;;;7.97;5.75;;;;;;;;;;4898488;29;20047;-25
2021/01/29 03:48:17;;;;;;;74.97;21.45;;;;;;;;;;4898240;29;20068;-24
2021/01/29 03:51:05;;;;;;;10.27;6.13;;;;;;;;;;4898123;29;20048;-24
2021/01/29 03:53:49;;;;;;;12.23;6.65;;;;;;;;;;4898041;29;20043;-24
2021/01/29 03:56:52;;;;;;;8.60;5.85;;;;;;;;;;4898335;29;20420;-25
2021/01/29 03:59:54;;;;;;;16.53;7.90;;;;;;;;;;4898340;29;20397;-25
2021/01/29 04:03:05;;;;;;;6.65;5.50;;;;;;;;;;4897502;29;20052;-25
2021/01/29 04:05:56;;;;;;;8.48;5.80;;;;;;;;;;4845750;29;20052;-25
2021/01/29 04:08:46;;;;;;;9.35;6.03;;;;;;;;;;4897884;29;20405;-25
2021/01/29 04:11:34;;;;;;;7.28;4.80;;;;;;;;;;4898075;29;20445;-24
2021/01/29 04:14:16;;;;;;;9.65;6.40;;;;;;;;;;4880817;29;20035;-25
2021/01/29 04:16:44;;;;;;;53.90;23.05;;;;;;;;;;4897653;29;20060;-24
2021/01/29 04:19:15;;;;;;;18.10;8.43;;;;;;;;;;4897484;29;20580;-23
2021/01/29 04:22:01;;;;;;;9.75;5.65;;;;;;;;;;4897665;29;20024;-25
2021/01/29 04:24:34;;;;;;;7.70;5.18;;;;;;;;;;4897427;29;20079;-25
2021/01/29 04:27:19;;;;;;;7.00;5.03;;;;;;;;;;4897468;29;20068;-24
2021/01/29 04:29:52;;;;;;;6.10;4.82;;;;;;;;;;4897197;29;20047;-24
2021/01/29 04:32:19;;;;;;;6.50;4.53;;;;;;;;;;4895923;29;20044;-25
2021/01/29 04:34:46;;;;;;;8.43;5.57;;;;;;;;;;4880583;29;20032;-25
2021/01/29 04:37:15;;;;;;;12.93;6.40;;;;;;;;;;4880633;29;20028;-24
2021/01/29 04:39:45;;;;;;;32.67;16.23;;;;;;;;;;4880542;29;20060;-24
2021/01/29 04:42:17;;;;;;;8.52;5.25;;;;;;;;;;4897413;29;20029;-24
2021/01/29 04:44:43;;;;;;;7.67;5.33;;;;;;;;;;4897317;29;20040;-24
2021/01/29 04:47:08;;;;;;;12.00;6.35;;;;;;;;;;4897100;29;20271;-24
2021/01/29 04:49:39;;;;;;;26.58;14.65;;;;;;;;;;4896040;29;20068;-24
2021/01/29 04:52:11;;;;;;;8.50;6.20;;;;;;;;;;4880326;29;20029;-24
2021/01/29 04:54:39;;;;;;;8.98;5.70;;;;;;;;;;4895730;29;20130;-24
2021/01/29 04:57:05;;;;;;;8.57;4.75;;;;;;;;;;4897144;29;20032;-24
2021/01/29 04:59:33;;;;;;;11.35;5.03;;;;;;;;;;4897208;29;20365;-24
2021/01/29 05:02:33;;;;;;;7.25;5.28;;;;;;;;;;4883820;29;20033;-23
2021/01/29 05:05:32;;;;;;;6.60;4.70;;;;;;;;;;4897091;29;20100;-24
2021/01/29 05:08:35;;;;;;;7.50;5.32;;;;;;;;;;4896933;29;20070;-24
2021/01/29 05:11:48;;;;;;;7.00;4.88;;;;;;;;;;4875039;29;20064;-24
2021/01/29 05:14:29;;;;;;;9.95;6.25;;;;;;;;;;4898379;29;20108;-24
2021/01/29 05:17:09;;;;;;;9.88;4.93;;;;;;;;;;4900962;29;20033;-24
2021/01/29 05:19:53;;;;;;;10.90;6.95;;;;;;;;;;4900837;29;20067;-24
2021/01/29 05:22:18;;;;;;;8.65;5.07;;;;;;;;;;4900931;29;20037;-24
2021/01/29 05:25:03;;;;;;;6.15;4.72;;;;;;;;;;4884007;29;20039;-24
2021/01/29 05:27:40;;;;;;;7.45;4.80;;;;;;;;;;4900165;29;20035;-26
2021/01/29 05:30:18;;;;;;;8.30;5.63;;;;;;;;;;4900604;29;20036;-25
2021/01/29 05:32:43;;;;;;;8.05;5.07;;;;;;;;;;4900479;29;20060;-23
2021/01/29 05:35:27;;;;;;;7.47;5.32;;;;;;;;;;4900539;29;20039;-23
2021/01/29 05:38:11;;;;;;;7.35;4.65;;;;;;;;;;4900591;29;20041;-24
2021/01/29 05:40:40;;;;;;;7.10;4.88;;;;;;;;;;4900547;29;20032;-23
2021/01/29 05:43:05;;;;;;;5.65;4.03;;;;;;;;;;4900240;29;20504;-23
2021/01/29 05:45:42;;;;;;;6.60;4.75;;;;;;;;;;4900421;29;20044;-25
2021/01/29 05:48:17;;;;;;;5.45;4.45;;;;;;;;;;4900349;29;20040;-26
2021/01/29 05:50:56;;;;;;;7.93;5.18;;;;;;;;;;4883487;29;20037;-26
2021/01/29 05:53:27;;;;;;;7.72;5.00;;;;;;;;;;4900482;29;20032;-25
2021/01/29 05:55:56;;;;;;;9.82;6.03;;;;;;;;;;4900429;29;20071;-26
2021/01/29 05:58:27;;;;;;;9.55;5.90;;;;;;;;;;4900067;29;20046;-22
2021/01/29 06:01:19;;;;;;;12.80;6.88;;;;;;;;;;4900190;29;20029;-25
2021/01/29 06:03:57;;;;;;;11.85;6.55;;;;;;;;;;4897925;29;20471;-23
2021/01/29 06:06:29;;;;;;;8.95;4.95;;;;;;;;;;4883035;29;20535;-24
2021/01/29 06:09:16;;;;;;;12.85;7.25;;;;;;;;;;4900015;29;20113;-25
2021/01/29 06:12:11;;;;;;;6.22;4.32;;;;;;;;;;4900230;29;20029;-24
2021/01/29 06:14:40;;;;;;;9.00;4.25;;;;;;;;;;4864882;29;20121;-25
2021/01/29 06:17:05;;;;;;;6.05;3.42;;;;;;;;;;4900128;29;20420;-25
2021/01/29 06:19:42;;;;;;;6.18;4.22;;;;;;;;;;4899629;29;20036;-24
2021/01/29 06:22:08;;;;;;;8.27;4.60;;;;;;;;;;4899742;29;20116;-24
2021/01/29 06:24:48;;;;;;;7.80;4.45;;;;;;;;;;4557632;29;9999866;-24
2021/01/29 06:27:26;;;;;;;6.68;4.70;;;;;;;;;;4895250;29;20072;-27
2021/01/29 06:30:04;;;;;;;27.73;14.98;;;;;;;;;;4896269;29;20048;-26
2021/01/29 06:32:53;;;;;;;16.95;7.45;;;;;;;;;;4896038;29;20046;-26
2021/01/29 06:35:29;;;;;;;8.73;4.78;;;;;;;;;;4889779;29;20024;-24
2021/01/29 06:38:05;;;;;;;6.75;3.90;;;;;;;;;;4896215;29;20032;-23
2021/01/29 06:40:31;;;;;;;7.20;4.43;;;;;;;;;;4896092;29;20108;-24
2021/01/29 06:42:59;;;;;;;5.63;3.03;;;;;;;;;;4895773;29;20123;-25
2021/01/29 06:45:27;;;;;;;6.95;4.22;;;;;;;;;;4896064;29;20051;-25
2021/01/29 06:48:02;;;;;;;6.32;4.50;;;;;;;;;;4894060;29;20036;-25
2021/01/29 06:50:34;;;;;;;6.70;4.05;;;;;;;;;;4895829;29;20044;-24
2021/01/29 06:53:11;;;;;;;6.60;3.67;;;;;;;;;;4895572;29;20119;-25
2021/01/29 06:55:39;;;;;;;5.13;3.60;;;;;;;;;;4895551;29;20033;-24
2021/01/29 06:58:25;;;;;;;5.18;4.25;;;;;;;;;;4895532;29;20024;-25
2021/01/29 07:01:03;;;;;;;7.05;4.22;;;;;;;;;;4894720;29;20063;-24
2021/01/29 07:03:51;;;;;;;8.75;4.38;;;;;;;;;;4878433;29;20040;-24
2021/01/29 07:06:26;;;;;;;8.02;6.35;;;;;;;;;;4895196;29;20036;-24
2021/01/29 07:08:58;;;;;;;8.48;5.20;;;;;;;;;;4878330;29;20028;-23
2021/01/29 07:11:42;;;;;;;8.35;4.78;;;;;;;;;;4894690;29;20051;-23
2021/01/29 07:14:07;;;;;;;5.85;4.38;;;;;;;;;;4895603;29;20036;-23
2021/01/29 07:16:52;;;;;;;7.30;4.50;;;;;;;;;;4895472;29;20052;-24
2021/01/29 07:19:36;;;;;;;5.10;4.28;;;;;;;;;;4895519;29;20039;-23
2021/01/29 07:22:01;;;;;;;9.75;7.05;;;;;;;;;;4895416;29;20873;-23
2021/01/29 07:24:26;;;;;;;5.45;4.28;;;;;;;;;;4895066;29;20047;-23
2021/01/29 07:27:07;;;;;;;9.35;5.53;;;;;;;;;;4895402;29;20115;-23
2021/01/29 07:29:53;;;;;;;6.20;4.70;;;;;;;;;;4895243;29;20044;-24
2021/01/29 07:32:39;;;;;;;7.38;4.13;;;;;;;;;;4865547;29;20463;-23
2021/01/29 07:35:10;;;;;;;6.63;4.15;;;;;;;;;;4885004;29;20143;-23
2021/01/29 07:37:56;;;;;;;5.60;3.47;;;;;;;;;;4877272;29;20555;-23
2021/01/29 07:40:40;;;;;;;8.55;5.30;;;;;;;;;;4867981;29;20780;-23
2021/01/29 07:43:09;;;;;;;7.00;5.07;;;;;;;;;;4878312;29;20050;-23
2021/01/29 07:45:54;;;;;;;27.65;7.63;;;;;;;;;;4895051;29;20025;-23
2021/01/29 07:48:37;;;;;;;190.80;31.42;;;;;;;;;;4894337;29;20036;-24
2021/01/29 07:51:07;;;;;;;17.52;5.88;;;;;;;;;;4877575;29;20119;-24
2021/01/29 07:53:38;;;;;;;23.63;9.63;;;;;;;;;;4894582;29;20029;-23
2021/01/29 07:56:14;;;;;;;7.75;5.10;;;;;;;;;;4894538;29;20040;-24
2021/01/29 07:58:54;;;;;;;12.73;6.07;;;;;;;;;;5066106;28;20836;-22
2021/01/29 08:01:40;;;;;;;11.70;6.97;;;;;;;;;;5065713;28;20036;-24
2021/01/29 08:04:06;;;;;;;7.38;5.20;;;;;;;;;;5065575;28;20028;-23
2021/01/29 08:06:35;;;;;;;10.13;5.65;;;;;;;;;;5065817;28;20360;-24
2021/01/29 08:09:05;;;;;;;17.73;6.15;;;;;;;;;;5063529;28;20028;-23
2021/01/29 08:11:35;;;;;;;52.05;12.27;;;;;;;;;;5047521;28;20024;-24
2021/01/29 08:14:27;;;;;;;17.88;7.10;;;;;;;;;;5065361;28;20052;-23
2021/01/29 08:17:08;;;;;;;7.07;4.32;;;;;;;;;;5056556;28;20045;-23
2021/01/29 08:19:45;;;;;;;7.57;5.57;;;;;;;;;;5047435;28;20033;-23
2021/01/29 08:22:29;;;;;;;19.75;6.38;;;;;;;;;;5065979;28;20025;-21
2021/01/29 08:25:17;;;;;;;12.57;5.35;;;;;;;;;;5063902;28;20025;-23
2021/01/29 08:27:53;;;;;;;6.60;4.45;;;;;;;;;;5043752;28;20082;-24
2021/01/29 08:30:52;;;;;;;12.25;4.65;;;;;;;;;;5065527;28;20043;-23
2021/01/29 08:33:43;;;;;;;7.30;5.38;;;;;;;;;;5064636;28;20041;-23
2021/01/29 08:36:18;;;;;;;10.43;5.15;;;;;;;;;;5063302;28;20039;-23
2021/01/29 08:38:51;;;;;;;7.10;4.75;;;;;;;;;;5063838;28;20154;-23
2021/01/29 08:41:18;;;;;;;;;;;;;;;;;;5065825;28;20025;-24
2021/01/29 08:43:53;;;;;;;6.75;4.85;;;;;;;;;;5080484;28;19967;-23
2021/01/29 08:46:37;;;;;;;8.88;4.55;;;;;;;;;;5065163;28;20123;-24
2021/01/29 08:49:21;;;;;;;6.63;4.65;;;;;;;;;;5063255;28;20025;-23
2021/01/29 08:51:52;;;;;;;6.03;4.28;;;;;;;;;;5065338;28;20033;-23
2021/01/29 08:54:23;;;;;;;15.23;6.93;;;;;;;;;;5055921;28;20392;-23
2021/01/29 08:56:59;;;;;;;10.25;5.53;;;;;;;;;;5043829;28;20057;-24
2021/01/29 08:59:27;;;;;;;9.63;5.53;;;;;;;;;;5043303;28;20059;-23
2021/01/29 09:01:52;;;;;;;8.00;4.90;;;;;;;;;;5044022;28;20038;-24
2021/01/29 09:04:37;;;;;;;11.32;6.55;;;;;;;;;;5045489;28;20036;-23
2021/01/29 09:07:07;;;;;;;8.80;6.40;;;;;;;;;;5045544;28;20041;-25
2021/01/29 09:09:35;;;;;;;8.25;5.70;;;;;;;;;;5033544;28;20025;-23
2021/01/29 09:12:03;;;;;;;9.40;6.18;;;;;;;;;;5031474;28;20148;-23
2021/01/29 09:14:35;;;;;;;9.30;5.45;;;;;;;;;;5031674;28;20460;-24
2021/01/29 09:17:23;;;;;;;9.35;6.50;;;;;;;;;;5031700;28;20049;-23
2021/01/29 09:20:00;;;;;;;7.47;5.88;;;;;;;;;;5028585;28;20044;-24
2021/01/29 09:22:32;;;;;;;85.78;15.60;;;;;;;;;;5031310;28;20036;-27
2021/01/29 09:25:16;;;;;;;11.10;6.47;;;;;;;;;;5035597;28;20025;-24
2021/01/29 09:27:45;;;;;;;9.07;6.13;;;;;;;;;;5051275;28;20079;-24
2021/01/29 09:30:17;;;;;;;27.80;8.73;;;;;;;;;;5049701;28;20021;-23
2021/01/29 09:32:45;;;;;;;10.02;6.70;;;;;;;;;;5049204;28;20029;-24
2021/01/29 09:35:13;;;;;;;9.98;5.70;;;;;;;;;;5050657;28;20013;-23
2021/01/29 09:37:44;;;;;;;10.80;6.70;;;;;;;;;;5050506;28;20049;-24
2021/01/29 09:40:11;;;;;;;9.00;7.22;;;;;;;;;;5050955;28;20779;-23
2021/01/29 09:42:39;;;;;;;8.18;6.07;;;;;;;;;;5032932;28;20118;-24
2021/01/29 09:45:06;;;;;;;14.30;7.35;;;;;;;;;;5051003;28;20021;-23
2021/01/29 09:47:36;;;;;;;27.10;9.88;;;;;;;;;;5050190;28;20299;-23
2021/01/29 09:50:08;;;;;;;12.23;7.80;;;;;;;;;;5049551;28;20025;-23
2021/01/29 09:52:39;;;;;;;12.32;8.52;;;;;;;;;;5036197;28;20040;-23
2021/01/29 09:55:16;;;;;;;11.88;7.63;;;;;;;;;;5043720;28;20074;-23
2021/01/29 09:58:00;;;;;;;12.90;8.85;;;;;;;;;;5050501;28;20098;-23
2021/01/29 10:00:33;;;;;;;15.38;9.25;;;;;;;;;;5049935;28;20017;-23
2021/01/29 10:02:59;;;;;;;;;;;;;;;;;;5050638;28;20051;-22
2021/01/29 10:05:25;;;;;;;15.73;9.48;;;;;;;;;;5050308;28;19990;-23
2021/01/29 10:08:13;;;;;;;14.93;10.38;;;;;;;;;;5049091;28;20552;-23
2021/01/29 10:10:42;;;;;;;12.85;8.73;;;;;;;;;;5044221;28;20129;-24
2021/01/29 10:13:30;;;;;;;15.15;9.32;;;;;;;;;;5049991;28;20025;-23
2021/01/29 10:16:12;;;;;;;16.80;10.68;;;;;;;;;;5050247;28;20044;-23
2021/01/29 10:18:38;;;;;;;14.32;8.93;;;;;;;;;;5048912;28;20060;-23
2021/01/29 10:21:05;;;;;;;42.88;25.20;;;;;;;;;;5048991;28;20025;-23
2021/01/29 10:23:41;;;;;;;12.55;8.90;;;;;;;;;;5049487;28;20029;-23
2021/01/29 10:26:19;;;;;;;16.05;9.88;;;;;;;;;;5043645;28;20079;-23
2021/01/29 10:28:50;;;;;;;14.65;9.63;;;;;;;;;;5050355;28;20021;-24
2021/01/29 10:31:17;;;;;;;12.82;8.85;;;;;;;;;;5049793;28;20049;-23
2021/01/29 10:33:45;;;;;;;18.05;11.73;;;;;;;;;;5049777;28;20734;-23
2021/01/29 10:36:23;;;;;;;15.98;9.55;;;;;;;;;;5049328;28;20659;-23
2021/01/29 10:38:52;;;;;;;14.38;9.20;;;;;;;;;;5050345;28;20051;-24
2021/01/29 10:41:37;;;;;;;14.57;8.77;;;;;;;;;;5049796;28;20895;-23
2021/01/29 10:44:10;;;;;;;14.43;9.25;;;;;;;;;;5048173;28;20123;-25
2021/01/29 10:46:50;;;;;;;13.25;9.38;;;;;;;;;;5049576;28;20037;-23
2021/01/29 10:49:27;;;;;;;13.30;8.85;;;;;;;;;;5049775;28;20033;-23
2021/01/29 10:52:12;;;;;;;15.40;9.65;;;;;;;;;;5049428;28;20037;-24
2021/01/29 10:54:38;;;;;;;12.48;8.23;;;;;;;;;;5047824;28;20033;-24
2021/01/29 10:57:07;;;;;;;16.92;10.18;;;;;;;;;;5049247;28;20053;-24
2021/01/29 10:59:40;;;;;;;12.07;9.15;;;;;;;;;;5049463;28;20039;-23
2021/01/29 11:02:07;;;;;;;13.50;9.75;;;;;;;;;;5047861;28;20116;-24
2021/01/29 11:04:37;;;;;;;15.30;9.57;;;;;;;;;;5047887;28;20033;-24
2021/01/29 11:07:07;;;;;;;16.38;9.88;;;;;;;;;;5047900;28;20025;-23
2021/01/29 11:09:37;;;;;;;14.38;9.68;;;;;;;;;;5049170;28;20017;-24
2021/01/29 11:12:13;;;;;;;13.20;9.05;;;;;;;;;;5030699;28;20430;-24
2021/01/29 11:14:42;;;;;;;13.35;10.02;;;;;;;;;;5047679;28;20033;-23
2021/01/29 11:17:12;;;;;;;14.55;8.82;;;;;;;;;;5047493;28;20056;-23
2021/01/29 11:19:37;;;;;;;12.18;9.20;;;;;;;;;;5049081;28;20489;-24
2021/01/29 11:22:12;;;;;;;14.32;9.80;;;;;;;;;;5048006;28;20060;-24
2021/01/29 11:24:46;;;;;;;12.73;9.20;;;;;;;;;;5039355;28;20391;-22
2021/01/29 11:27:20;;;;;;;13.85;8.80;;;;;;;;;;5045856;28;20052;-23
2021/01/29 11:29:46;;;;;;;14.02;9.80;;;;;;;;;;5047399;28;20021;-24
2021/01/29 11:32:17;;;;;;;11.43;8.15;;;;;;;;;;5046566;28;20468;-23
2021/01/29 11:34:43;;;;;;;11.32;7.13;;;;;;;;;;5047366;28;20025;-23
2021/01/29 11:37:20;;;;;;;9.77;6.68;;;;;;;;;;5048173;28;20767;-23
2021/01/29 11:39:50;;;;;;;14.40;9.00;;;;;;;;;;5048251;28;20039;-24
2021/01/29 11:42:22;;;;;;;15.45;8.73;;;;;;;;;;5047193;28;20024;-24
2021/01/29 11:44:57;;;;;;;13.48;8.80;;;;;;;;;;5047278;28;20040;-25
2021/01/29 11:47:41;;;;;;;15.70;9.52;;;;;;;;;;5048387;28;20032;-23
2021/01/29 11:50:19;;;;;;;16.55;9.95;;;;;;;;;;5039208;28;20037;-24
2021/01/29 11:52:58;;;;;;;12.55;8.05;;;;;;;;;;5048657;28;20037;-24
2021/01/29 11:55:29;;;;;;;14.70;8.52;;;;;;;;;;5047288;28;20029;-25
2021/01/29 11:58:08;;;;;;;16.08;9.65;;;;;;;;;;5048197;28;20056;-24
2021/01/29 12:00:33;;;;;;;15.70;10.95;;;;;;;;;;5048151;28;20021;-25
2021/01/29 12:02:58;;;;;;;19.60;10.15;;;;;;;;;;5048796;28;20037;-25
2021/01/29 12:05:30;;;;;;;22.48;9.95;;;;;;;;;;5048829;28;20561;-24
2021/01/29 12:08:03;;;;;;;13.57;8.52;;;;;;;;;;5048287;28;20029;-25
2021/01/29 12:10:39;;;;;;;33.97;16.00;;;;;;;;;;5047429;28;20518;-24
2021/01/29 12:13:14;;;;;;;11.65;8.00;;;;;;;;;;5047057;28;20025;-24
2021/01/29 12:15:48;;;;;;;10.75;8.00;;;;;;;;;;5047349;28;20033;-24
2021/01/29 12:18:15;;;;;;;11.43;8.02;;;;;;;;;;5048322;28;20036;-24
2021/01/29 12:20:42;;;;;;;11.75;7.90;;;;;;;;;;5048646;28;20025;-24
2021/01/29 12:23:10;;;;;;;11.48;7.80;;;;;;;;;;5047925;28;20472;-25
2021/01/29 12:25:36;;;;;;;17.38;11.60;;;;;;;;;;5038052;28;20037;-25
2021/01/29 12:28:15;;;;;;;13.07;8.95;;;;;;;;;;5042523;28;20154;-24
2021/01/29 12:30:46;;;;;;;13.95;7.80;;;;;;;;;;5047749;28;20033;-24
2021/01/29 12:33:18;;;;;;;12.98;7.65;;;;;;;;;;5047995;28;20108;-24
2021/01/29 12:35:49;;;;;;;13.27;7.07;;;;;;;;;;5047315;28;20502;-25
2021/01/29 12:38:23;;;;;;;10.45;6.82;;;;;;;;;;5047686;28;20399;-25
2021/01/29 12:40:49;;;;;;;14.23;8.55;;;;;;;;;;5047298;28;20036;-25
2021/01/29 12:43:17;;;;;;;11.43;7.60;;;;;;;;;;5030439;28;20029;-25
2021/01/29 12:45:52;;;;;;;14.02;8.35;;;;;;;;;;5050714;28;20115;-27
2021/01/29 12:48:17;;;;;;;10.45;7.95;;;;;;;;;;5051895;28;20037;-25
2021/01/29 12:50:48;;;;;;;8.32;6.45;;;;;;;;;;5052109;28;20594;-26
2021/01/29 12:53:21;;;;;;;9.88;7.50;;;;;;;;;;5033424;28;20399;-25
2021/01/29 12:55:51;;;;;;;7.88;4.22;;;;;;;;;;5050891;28;20064;-24
2021/01/29 12:58:17;;;;;;;9.85;5.28;;;;;;;;;;5051290;28;20048;-26
2021/01/29 13:00:44;;;;;;;11.02;7.57;;;;;;;;;;5051279;28;20052;-25
2021/01/29 13:03:16;;;;;;;12.82;8.55;;;;;;;;;;5051796;28;20033;-26
2021/01/29 13:05:50;;;;;;;10.43;7.82;;;;;;;;;;5051393;28;20072;-25
2021/01/29 13:08:34;;;;;;;9.48;5.68;;;;;;;;;;5033441;28;20033;-23
2021/01/29 13:11:07;;;;;;;8.38;4.93;;;;;;;;;;5049544;28;20060;-23
2021/01/29 13:13:32;;;;;;;;;;;;;;;;;;5012364;28;20493;-23
2021/01/29 13:16:00;;;;;;;12.50;8.40;;;;;;;;;;5012163;28;19921;-23
2021/01/29 13:18:46;;;;;;;12.13;8.23;;;;;;;;;;5012176;28;20057;-24
2021/01/29 13:21:17;;;;;;;12.02;7.93;;;;;;;;;;5019652;28;20061;-23
2021/01/29 13:23:44;;;;;;;11.18;8.15;;;;;;;;;;5012285;28;20408;-23
2021/01/29 13:26:27;;;;;;;10.15;7.15;;;;;;;;;;5031641;28;20026;-22
2021/01/29 13:29:01;;;;;;;8.68;6.68;;;;;;;;;;5030105;28;20056;-23
2021/01/29 13:31:30;;;;;;;7.32;5.72;;;;;;;;;;5028969;28;20041;-22
2021/01/29 13:33:57;;;;;;;8.27;6.13;;;;;;;;;;5031521;28;20021;-23
2021/01/29 13:36:29;;;;;;;8.20;6.07;;;;;;;;;;5029663;28;20087;-24
2021/01/29 13:39:07;;;;;;;9.57;6.53;;;;;;;;;;5043876;28;20049;-24
2021/01/29 13:41:39;;;;;;;9.38;6.30;;;;;;;;;;5051369;28;20037;-25
2021/01/29 13:44:28;;;;;;;7.93;6.25;;;;;;;;;;5051451;28;20033;-27
2021/01/29 13:46:53;;;;;;;7.82;5.80;;;;;;;;;;5044154;28;20050;-24
2021/01/29 13:49:34;;;;;;;17.63;9.00;;;;;;;;;;5050917;28;20036;-25
2021/01/29 13:52:00;;;;;;;44.67;24.10;;;;;;;;;;5050013;28;20383;-24
2021/01/29 13:54:27;;;;;;;8.45;5.60;;;;;;;;;;5049390;28;20041;-25
2021/01/29 13:56:53;;;;;;;9.82;7.32;;;;;;;;;;5050938;28;20484;-25
2021/01/29 13:59:29;;;;;;;10.93;6.80;;;;;;;;;;5049153;28;20137;-24
2021/01/29 14:02:01;;;;;;;10.95;8.20;;;;;;;;;;5050739;28;20036;-24
2021/01/29 14:04:36;;;;;;;9.88;6.65;;;;;;;;;;5050893;28;20103;-24
2021/01/29 14:07:02;;;;;;;13.02;7.57;;;;;;;;;;5048424;28;20037;-23
2021/01/29 14:09:28;;;;;;;16.05;7.53;;;;;;;;;;5050491;28;20021;-23
2021/01/29 14:11:56;;;;;;;9.35;7.03;;;;;;;;;;5050084;28;20032;-23
2021/01/29 14:14:27;;;;;;;9.95;6.18;;;;;;;;;;5050589;28;20029;-24
2021/01/29 14:17:11;;;;;;;8.35;5.78;;;;;;;;;;5049109;28;20640;-22
2021/01/29 14:19:44;;;;;;;10.32;5.82;;;;;;;;;;5050697;28;20025;-23
2021/01/29 14:22:12;;;;;;;6.45;4.45;;;;;;;;;;5050391;28;20075;-23
2021/01/29 14:24:52;;;;;;;8.98;6.13;;;;;;;;;;5048994;28;20029;-22
2021/01/29 14:27:32;;;;;;;7.55;5.22;;;;;;;;;;5049142;28;20037;-23
2021/01/29 14:30:16;;;;;;;7.28;5.35;;;;;;;;;;5050338;28;20025;-24
2021/01/29 14:32:47;;;;;;;7.72;5.80;;;;;;;;;;5032403;28;20060;-23
2021/01/29 14:35:23;;;;;;;5.55;4.43;;;;;;;;;;5050096;28;20037;-23
2021/01/29 14:38:01;;;;;;;7.78;5.50;;;;;;;;;;5048900;28;20388;-23
2021/01/29 14:40:53;;;;;;;6.95;4.38;;;;;;;;;;5048823;28;20033;-23
2021/01/29 14:43:23;;;;;;;5.63;4.45;;;;;;;;;;5048308;28;20099;-23
2021/01/29 14:45:57;;;;;;;8.05;5.43;;;;;;;;;;5048419;28;20047;-24
2021/01/29 14:48:23;;;;;;;5.15;4.25;;;;;;;;;;5031235;28;20049;-24
2021/01/29 14:50:48;;;;;;;5.13;4.13;;;;;;;;;;5048385;28;20068;-23
2021/01/29 14:53:18;;;;;;;6.70;3.55;;;;;;;;;;5049392;28;20094;-24
2021/01/29 14:55:43;;;;;;;5.57;3.95;;;;;;;;;;5049487;28;20037;-24
2021/01/29 14:58:10;;;;;;;7.78;4.57;;;;;;;;;;5047782;28;20052;-23
2021/01/29 15:00:38;;;;;;;4.57;3.83;;;;;;;;;;5048688;28;20025;-23
2021/01/29 15:03:12;;;;;;;5.45;4.45;;;;;;;;;;5048489;28;20028;-23
2021/01/29 15:05:40;;;;;;;5.28;4.72;;;;;;;;;;5049698;28;20056;-23
2021/01/29 15:08:06;;;;;;;5.38;4.13;;;;;;;;;;5049214;28;20040;-23
2021/01/29 15:10:36;;;;;;;6.68;4.18;;;;;;;;;;5046208;28;20030;-23
2021/01/29 15:13:13;;;;;;;6.97;4.57;;;;;;;;;;5028351;28;20064;-23
2021/01/29 15:15:38;;;;;;;6.57;5.30;;;;;;;;;;5028466;28;20034;-23
2021/01/29 15:18:11;;;;;;;5.88;4.97;;;;;;;;;;5029693;28;20059;-23
2021/01/29 15:20:37;;;;;;;;;;;;;;;;;;5029221;28;20029;-23
2021/01/29 15:23:07;;;;;;;5.47;4.18;;;;;;;;;;5029354;28;19920;-23
2021/01/29 15:25:32;;;;;;;5.93;4.25;;;;;;;;;;5029413;28;20052;-23
2021/01/29 15:28:16;;;;;;;5.28;4.10;;;;;;;;;;5027962;28;20488;-23
2021/01/29 15:30:42;;;;;;;5.85;4.90;;;;;;;;;;5029532;28;20036;-23